createdAt,value
2018-02-24T05:00:54.315Z,0
2018-02-24T05:01:19.780Z,0
2018-02-24T05:01:45.275Z,0
2018-02-24T05:02:10.767Z,0
2018-02-24T05:02:36.295Z,0
2018-02-24T05:03:01.730Z,0
2018-02-24T05:03:27.345Z,0
2018-02-24T05:03:52.805Z,0
2018-02-24T05:04:18.311Z,0
2018-02-24T05:04:43.822Z,0
2018-02-24T05:05:09.257Z,0
2018-02-24T05:05:34.728Z,0
2018-02-24T05:06:00.230Z,0
2018-02-24T05:06:25.750Z,0
2018-02-24T05:06:51.215Z,0
2018-02-24T05:07:16.672Z,0
2018-02-24T05:07:42.094Z,0
2018-02-24T05:08:07.582Z,0
2018-02-24T05:08:33.078Z,0
2018-02-24T05:08:58.598Z,0
2018-02-24T05:09:24.081Z,0
2018-02-24T05:09:49.559Z,0
2018-02-24T05:10:15.055Z,0
2018-02-24T05:10:40.566Z,0
2018-02-24T05:11:06.056Z,0
2018-02-24T05:11:31.766Z,0
2018-02-24T05:11:57.292Z,0
2018-02-24T05:12:22.746Z,0
2018-02-24T05:12:48.233Z,0
2018-02-24T05:13:13.744Z,0
2018-02-24T05:13:39.246Z,0
2018-02-24T05:14:04.713Z,0
2018-02-24T05:14:30.228Z,0
2018-02-24T05:14:55.677Z,0
2018-02-24T05:15:21.192Z,0
2018-02-24T05:15:46.765Z,0
2018-02-24T05:16:12.248Z,0
2018-02-24T05:16:37.726Z,0
2018-02-24T05:17:03.238Z,0
2018-02-24T05:17:28.672Z,0
2018-02-24T05:17:54.167Z,0
2018-02-24T05:18:19.686Z,0
2018-02-24T05:18:45.131Z,0
2018-02-24T05:19:10.609Z,0
2018-02-24T05:19:36.061Z,0
2018-02-24T05:20:01.579Z,0
2018-02-24T05:20:27.111Z,0
2018-02-24T05:20:52.525Z,0
2018-02-24T05:21:18.036Z,0
2018-02-24T05:21:43.496Z,0
2018-02-24T05:22:08.954Z,0
2018-02-24T05:22:34.445Z,0
2018-02-24T05:22:59.908Z,0
2018-02-24T05:23:25.409Z,0
2018-02-24T05:23:50.875Z,0
2018-02-24T05:24:16.262Z,0
2018-02-24T05:24:41.755Z,0
2018-02-24T05:25:07.223Z,0
2018-02-24T05:25:32.664Z,0
2018-02-24T05:25:58.219Z,0
2018-02-24T05:26:23.625Z,0
2018-02-24T05:26:49.141Z,0
2018-02-24T05:27:14.639Z,0
2018-02-24T05:27:40.119Z,0
2018-02-24T05:28:05.599Z,0
2018-02-24T05:28:31.088Z,0
2018-02-24T05:28:56.608Z,0
2018-02-24T05:29:22.097Z,0
2018-02-24T05:29:47.601Z,0
2018-02-24T05:30:13.092Z,0
2018-02-24T05:31:21.794Z,0
2018-02-24T05:31:47.290Z,0
2018-02-24T05:32:12.777Z,0
2018-02-24T05:32:38.288Z,0
2018-02-24T05:33:03.783Z,0
2018-02-24T05:33:29.259Z,0
2018-02-24T05:33:54.735Z,0
2018-02-24T05:34:20.278Z,0
2018-02-24T05:34:45.804Z,0
2018-02-24T05:35:11.290Z,0
2018-02-24T05:35:36.786Z,0
2018-02-24T05:36:02.263Z,0
2018-02-24T05:36:27.753Z,0
2018-02-24T05:36:53.236Z,0
2018-02-24T05:37:18.715Z,0
2018-02-24T05:37:44.192Z,0
2018-02-24T05:38:09.670Z,0
2018-02-24T05:38:35.262Z,0
2018-02-24T05:39:00.673Z,0
2018-02-24T05:39:26.156Z,0
2018-02-24T05:39:51.612Z,0
2018-02-24T05:40:17.088Z,0
2018-02-24T05:40:42.547Z,0
2018-02-24T05:41:08.016Z,0
2018-02-24T05:41:33.471Z,0
2018-02-24T05:41:58.937Z,0
2018-02-24T05:42:24.432Z,0
2018-02-24T05:42:49.927Z,0
2018-02-24T05:43:15.556Z,0
2018-02-24T05:43:41.023Z,0
2018-02-24T05:44:06.492Z,0
2018-02-24T05:44:32.073Z,0
2018-02-24T05:44:57.543Z,0
2018-02-24T05:45:23.017Z,0
2018-02-24T05:45:48.491Z,0
2018-02-24T05:46:13.976Z,0
2018-02-24T05:46:39.496Z,0
2018-02-24T05:47:04.994Z,0
2018-02-24T05:47:30.553Z,0
2018-02-24T05:47:56.072Z,0
2018-02-24T05:48:21.602Z,0
2018-02-24T05:48:47.078Z,0
2018-02-24T05:49:12.647Z,0
2018-02-24T05:49:38.088Z,0
2018-02-24T05:50:03.596Z,0
2018-02-24T05:50:29.069Z,0
2018-02-24T05:50:54.599Z,0
2018-02-24T05:51:20.086Z,0
2018-02-24T05:51:45.735Z,0
2018-02-24T05:52:11.204Z,0
2018-02-24T05:52:37.785Z,0
2018-02-24T05:53:56.665Z,0
2018-02-24T05:54:22.155Z,0
2018-02-24T05:54:47.622Z,0
2018-02-24T05:55:13.120Z,0
2018-02-24T05:55:38.615Z,0
2018-02-24T05:56:04.091Z,0
2018-02-24T05:56:29.613Z,0
2018-02-24T05:56:55.329Z,0
2018-02-24T05:57:21.028Z,0
2018-02-24T05:57:46.683Z,0
2018-02-24T05:58:12.153Z,0
2018-02-24T05:58:38.410Z,0
2018-02-24T05:59:04.086Z,0
2018-02-24T05:59:29.560Z,0
2018-02-24T05:59:55.804Z,0
2018-02-24T06:00:21.630Z,0
2018-02-24T06:00:47.151Z,0
2018-02-24T06:01:12.628Z,0
2018-02-24T06:01:38.122Z,0
2018-02-24T06:02:03.612Z,0
2018-02-24T06:02:30.151Z,0
2018-02-24T06:02:55.943Z,0
2018-02-24T06:03:21.399Z,0
2018-02-24T06:03:46.878Z,0
2018-02-24T06:04:12.333Z,0
2018-02-24T06:04:37.884Z,0
2018-02-24T06:05:03.369Z,0
2018-02-24T06:05:28.897Z,0
2018-02-24T06:05:54.380Z,0
2018-02-24T06:06:19.854Z,0
2018-02-24T06:06:45.388Z,0
2018-02-24T06:07:10.896Z,0
2018-02-24T06:07:36.403Z,0
2018-02-24T06:08:01.798Z,0
2018-02-24T06:08:27.248Z,0
2018-02-24T06:08:52.778Z,0
2018-02-24T06:09:18.293Z,0
2018-02-24T06:09:43.838Z,0
2018-02-24T06:10:09.332Z,0
2018-02-24T06:10:34.787Z,0
2018-02-24T06:11:00.264Z,0
2018-02-24T06:11:25.724Z,0
2018-02-24T06:11:51.253Z,0
2018-02-24T06:12:16.708Z,0
2018-02-24T06:12:42.191Z,0
2018-02-24T06:13:07.710Z,0
2018-02-24T06:13:33.107Z,0
2018-02-24T06:13:58.560Z,0
2018-02-24T06:14:24.078Z,0
2018-02-24T06:14:49.537Z,0
2018-02-24T06:15:15.034Z,0
2018-02-24T06:15:40.544Z,0
2018-02-24T06:16:05.968Z,0
2018-02-24T06:16:31.433Z,0
2018-02-24T06:16:56.979Z,0
2018-02-24T06:17:22.455Z,0
2018-02-24T06:17:47.931Z,0
2018-02-24T06:18:13.388Z,0
2018-02-24T06:18:38.851Z,0
2018-02-24T06:19:04.332Z,0
2018-02-24T06:19:29.793Z,0
2018-02-24T06:19:55.265Z,0
2018-02-24T06:20:20.799Z,0
2018-02-24T06:20:46.311Z,0
2018-02-24T06:21:11.724Z,5
2018-02-24T06:21:37.267Z,5
2018-02-24T06:22:02.758Z,5
2018-02-24T06:22:28.299Z,5
2018-02-24T06:22:53.696Z,5
2018-02-24T06:23:19.221Z,5
2018-02-24T06:23:44.706Z,5
2018-02-24T06:24:10.237Z,5
2018-02-24T06:24:35.796Z,5
2018-02-24T06:25:01.244Z,5
2018-02-24T06:25:26.718Z,5
2018-02-24T06:25:52.239Z,5
2018-02-24T06:26:17.686Z,5
2018-02-24T06:26:43.131Z,5
2018-02-24T06:27:08.657Z,5
2018-02-24T06:27:34.143Z,5
2018-02-24T06:27:59.673Z,5
2018-02-24T06:28:25.109Z,5
2018-02-24T06:28:50.686Z,5
2018-02-24T06:29:16.150Z,5
2018-02-24T06:29:41.810Z,5
2018-02-24T06:30:07.369Z,5
2018-02-24T06:30:32.814Z,10
2018-02-24T06:30:58.350Z,10
2018-02-24T06:31:23.837Z,10
2018-02-24T06:31:49.379Z,10
2018-02-24T06:32:14.959Z,10
2018-02-24T06:32:40.392Z,10
2018-02-24T06:33:05.894Z,10
2018-02-24T06:33:31.429Z,10
2018-02-24T06:33:56.940Z,10
2018-02-24T06:34:22.485Z,10
2018-02-24T06:34:47.936Z,10
2018-02-24T06:35:13.456Z,10
2018-02-24T06:35:38.927Z,10
2018-02-24T06:36:04.391Z,10
2018-02-24T06:36:29.933Z,15
2018-02-24T06:36:55.425Z,15
2018-02-24T06:37:20.928Z,15
2018-02-24T06:37:46.440Z,15
2018-02-24T06:38:11.953Z,15
2018-02-24T06:38:37.488Z,15
2018-02-24T06:39:02.954Z,15
2018-02-24T06:39:28.438Z,15
2018-02-24T06:39:53.936Z,15
2018-02-24T06:40:19.446Z,15
2018-02-24T06:40:45.008Z,15
2018-02-24T06:41:10.497Z,15
2018-02-24T06:41:36.039Z,15
2018-02-24T06:42:01.516Z,15
2018-02-24T06:42:26.999Z,20
2018-02-24T06:42:52.512Z,20
2018-02-24T06:43:17.940Z,20
2018-02-24T06:43:43.427Z,20
2018-02-24T06:44:08.938Z,20
2018-02-24T06:44:34.420Z,20
2018-02-24T06:44:59.886Z,20
2018-02-24T06:45:25.387Z,20
2018-02-24T06:45:50.877Z,20
2018-02-24T06:46:16.322Z,20
2018-02-24T06:46:41.823Z,20
2018-02-24T06:47:07.355Z,20
2018-02-24T06:47:32.821Z,25
2018-02-24T06:47:58.324Z,25
2018-02-24T06:48:23.706Z,25
2018-02-24T06:48:49.153Z,25
2018-02-24T06:49:14.709Z,25
2018-02-24T06:49:40.199Z,25
2018-02-24T06:50:05.761Z,25
2018-02-24T06:50:31.162Z,25
2018-02-24T06:50:56.623Z,25
2018-02-24T06:51:22.121Z,25
2018-02-24T06:51:47.647Z,25
2018-02-24T06:52:13.170Z,30
2018-02-24T06:52:38.781Z,30
2018-02-24T06:53:04.210Z,30
2018-02-24T06:53:29.710Z,30
2018-02-24T06:53:55.117Z,30
2018-02-24T06:54:20.616Z,30
2018-02-24T06:54:46.079Z,30
2018-02-24T06:55:11.600Z,30
2018-02-24T06:55:37.076Z,30
2018-02-24T06:56:02.591Z,30
2018-02-24T06:56:28.103Z,30
2018-02-24T06:56:53.645Z,30
2018-02-24T06:57:19.158Z,35
2018-02-24T06:57:44.615Z,35
2018-02-24T06:58:10.095Z,35
2018-02-24T06:58:35.596Z,35
2018-02-24T06:59:01.038Z,35
2018-02-24T06:59:26.639Z,35
2018-02-24T06:59:52.139Z,35
2018-02-24T07:00:17.606Z,35
2018-02-24T07:00:43.148Z,35
2018-02-24T07:01:08.587Z,35
2018-02-24T07:01:34.121Z,35
2018-02-24T07:01:59.612Z,35
2018-02-24T07:02:25.077Z,35
2018-02-24T07:02:50.570Z,35
2018-02-24T07:03:16.037Z,40
2018-02-24T07:03:41.568Z,40
2018-02-24T07:04:07.057Z,40
2018-02-24T07:04:32.554Z,40
2018-02-24T07:04:58.030Z,40
2018-02-24T07:05:23.525Z,40
2018-02-24T07:05:49.011Z,40
2018-02-24T07:06:14.505Z,40
2018-02-24T07:06:39.999Z,40
2018-02-24T07:07:05.515Z,40
2018-02-24T07:07:31.000Z,40
2018-02-24T07:07:56.509Z,40
2018-02-24T07:08:22.010Z,45
2018-02-24T07:08:47.520Z,45
2018-02-24T07:09:13.621Z,45
2018-02-24T07:09:39.118Z,45
2018-02-24T07:10:04.619Z,45
2018-02-24T07:10:30.151Z,45
2018-02-24T07:10:55.655Z,45
2018-02-24T07:11:21.261Z,45
2018-02-24T07:11:46.620Z,45
2018-02-24T07:12:12.104Z,45
2018-02-24T07:12:37.622Z,45
2018-02-24T07:13:03.159Z,45
2018-02-24T07:13:28.639Z,45
2018-02-24T07:13:54.196Z,45
2018-02-24T07:14:19.719Z,45
2018-02-24T07:14:45.275Z,50
2018-02-24T07:15:10.761Z,50
2018-02-24T07:15:36.319Z,50
2018-02-24T07:16:01.815Z,50
2018-02-24T07:16:27.317Z,50
2018-02-24T07:16:52.825Z,50
2018-02-24T07:17:18.312Z,50
2018-02-24T07:17:43.860Z,50
2018-02-24T07:18:09.424Z,50
2018-02-24T07:18:34.914Z,50
2018-02-24T07:19:00.382Z,50
2018-02-24T07:19:25.866Z,55
2018-02-24T07:19:51.335Z,55
2018-02-24T07:21:20.482Z,55
2018-02-24T07:21:45.958Z,55
2018-02-24T07:22:11.525Z,55
2018-02-24T07:22:37.111Z,55
2018-02-24T07:24:06.262Z,60
2018-02-24T07:24:31.772Z,60
2018-02-24T07:24:57.282Z,60
2018-02-24T07:25:22.828Z,60
2018-02-24T07:25:48.444Z,60
2018-02-24T07:26:14.081Z,60
2018-02-24T07:26:39.515Z,60
2018-02-24T07:27:05.075Z,60
2018-02-24T07:27:30.605Z,60
2018-02-24T07:27:56.001Z,60
2018-02-24T07:28:21.677Z,60
2018-02-24T07:28:46.981Z,60
2018-02-24T07:29:12.473Z,60
2018-02-24T07:29:37.997Z,60
2018-02-24T07:30:03.461Z,65
2018-02-24T07:30:28.863Z,65
2018-02-24T07:30:54.598Z,65
2018-02-24T07:31:20.146Z,65
2018-02-24T07:31:45.995Z,65
2018-02-24T07:32:11.320Z,70
2018-02-24T07:33:20.044Z,70
2018-02-24T07:33:45.566Z,70
2018-02-24T07:34:11.103Z,70
2018-02-24T07:35:30.306Z,70
2018-02-24T07:35:55.753Z,70
2018-02-24T07:36:21.236Z,70
2018-02-24T07:36:46.735Z,70
2018-02-24T07:37:12.204Z,70
2018-02-24T07:37:37.718Z,70
2018-02-24T07:38:03.190Z,70
2018-02-24T07:38:28.612Z,70
2018-02-24T07:38:54.128Z,70
2018-02-24T07:39:19.577Z,75
2018-02-24T07:39:45.080Z,75
2018-02-24T07:40:10.551Z,75
2018-02-24T07:40:35.924Z,75
2018-02-24T07:41:01.396Z,80
2018-02-24T07:41:26.889Z,80
2018-02-24T07:41:52.455Z,75
2018-02-24T07:42:17.982Z,75
2018-02-24T07:42:43.483Z,75
2018-02-24T07:43:08.912Z,75
2018-02-24T07:43:34.398Z,75
2018-02-24T07:44:00.077Z,75
2018-02-24T07:44:25.552Z,75
2018-02-24T07:44:51.028Z,75
2018-02-24T07:45:16.550Z,75
2018-02-24T07:45:41.991Z,75
2018-02-24T07:46:07.445Z,75
2018-02-24T07:46:32.993Z,75
2018-02-24T07:46:58.513Z,80
2018-02-24T07:47:23.983Z,80
2018-02-24T07:47:49.681Z,80
2018-02-24T07:48:15.000Z,80
2018-02-24T07:48:40.480Z,80
2018-02-24T07:49:05.986Z,80
2018-02-24T07:49:31.462Z,80
2018-02-24T07:49:56.872Z,80
2018-02-24T07:50:22.368Z,80
2018-02-24T07:50:47.845Z,80
2018-02-24T07:51:13.322Z,80
2018-02-24T07:51:38.940Z,80
2018-02-24T07:52:04.409Z,80
2018-02-24T07:52:30.588Z,80
2018-02-24T07:52:56.070Z,80
2018-02-24T07:53:21.537Z,75
2018-02-24T07:53:47.004Z,75
2018-02-24T07:54:12.508Z,75
2018-02-24T07:54:37.956Z,75
2018-02-24T07:55:03.474Z,75
2018-02-24T07:55:28.977Z,75
2018-02-24T07:55:54.479Z,75
2018-02-24T07:56:19.964Z,75
2018-02-24T07:56:45.522Z,75
2018-02-24T07:57:10.996Z,80
2018-02-24T07:57:36.502Z,80
2018-02-24T07:58:02.537Z,80
2018-02-24T07:58:27.969Z,80
2018-02-24T07:58:53.393Z,80
2018-02-24T07:59:18.853Z,80
2018-02-24T07:59:44.371Z,80
2018-02-24T08:00:09.853Z,80
2018-02-24T08:00:35.309Z,80
2018-02-24T08:01:00.821Z,80
2018-02-24T08:01:26.288Z,80
2018-02-24T08:01:51.788Z,80
2018-02-24T08:02:17.283Z,80
2018-02-24T08:02:42.764Z,80
2018-02-24T08:03:08.326Z,80
2018-02-24T08:03:33.827Z,80
2018-02-24T08:03:59.293Z,80
2018-02-24T08:04:24.813Z,80
2018-02-24T08:04:50.272Z,80
2018-02-24T08:05:15.788Z,80
2018-02-24T08:05:41.196Z,80
2018-02-24T08:06:06.688Z,80
2018-02-24T08:06:32.151Z,80
2018-02-24T08:06:57.699Z,80
2018-02-24T08:07:23.155Z,80
2018-02-24T08:07:48.642Z,80
2018-02-24T08:08:14.186Z,80
2018-02-24T08:08:39.726Z,80
2018-02-24T08:09:05.192Z,80
2018-02-24T08:09:30.637Z,80
2018-02-24T08:09:56.156Z,80
2018-02-24T08:10:21.584Z,80
2018-02-24T08:10:47.117Z,80
2018-02-24T08:11:12.594Z,85
2018-02-24T08:11:38.038Z,85
2018-02-24T08:12:03.530Z,85
2018-02-24T08:12:29.026Z,85
2018-02-24T08:12:54.507Z,85
2018-02-24T08:13:19.961Z,85
2018-02-24T08:13:45.507Z,85
2018-02-24T08:14:11.007Z,85
2018-02-24T08:14:36.433Z,85
2018-02-24T08:15:01.956Z,85
2018-02-24T08:15:27.448Z,85
2018-02-24T08:15:52.985Z,85
2018-02-24T08:16:18.402Z,85
2018-02-24T08:16:43.866Z,90
2018-02-24T08:17:09.338Z,90
2018-02-24T08:17:34.904Z,90
2018-02-24T08:18:00.350Z,90
2018-02-24T08:18:25.817Z,95
2018-02-24T08:18:51.259Z,90
2018-02-24T08:19:16.718Z,90
2018-02-24T08:19:42.261Z,90
2018-02-24T08:20:07.698Z,90
2018-02-24T08:20:33.202Z,95
2018-02-24T08:20:58.713Z,95
2018-02-24T08:21:24.199Z,95
2018-02-24T08:21:49.705Z,95
2018-02-24T08:22:15.165Z,95
2018-02-24T08:22:40.658Z,95
2018-02-24T08:23:06.154Z,95
2018-02-24T08:23:31.648Z,95
2018-02-24T08:23:57.160Z,95
2018-02-24T08:24:22.642Z,100
2018-02-24T08:24:48.147Z,95
2018-02-24T08:25:13.625Z,95
2018-02-24T08:25:39.121Z,100
2018-02-24T08:26:04.612Z,100
2018-02-24T08:26:29.998Z,100
2018-02-24T08:26:55.520Z,100
2018-02-24T08:27:20.946Z,100
2018-02-24T08:27:46.426Z,100
2018-02-24T08:28:11.991Z,100
2018-02-24T08:28:37.409Z,105
2018-02-24T08:29:02.934Z,105
2018-02-24T08:29:28.474Z,105
2018-02-24T08:29:53.977Z,105
2018-02-24T08:30:19.454Z,105
2018-02-24T08:30:44.924Z,105
2018-02-24T08:31:10.409Z,105
2018-02-24T08:31:35.908Z,105
2018-02-24T08:32:01.415Z,105
2018-02-24T08:32:26.871Z,105
2018-02-24T08:32:52.367Z,105
2018-02-24T08:33:17.846Z,105
2018-02-24T08:33:43.406Z,105
2018-02-24T08:34:08.804Z,105
2018-02-24T08:34:34.348Z,105
2018-02-24T08:34:59.810Z,105
2018-02-24T08:35:25.272Z,105
2018-02-24T08:35:50.779Z,105
2018-02-24T08:36:16.238Z,110
2018-02-24T08:36:41.738Z,110
2018-02-24T08:37:07.196Z,110
2018-02-24T08:37:32.718Z,110
2018-02-24T08:37:58.169Z,110
2018-02-24T08:38:23.678Z,110
2018-02-24T08:38:49.160Z,110
2018-02-24T08:39:14.659Z,110
2018-02-24T08:39:40.126Z,110
2018-02-24T08:40:05.675Z,110
2018-02-24T08:40:31.117Z,110
2018-02-24T08:40:56.592Z,110
2018-02-24T08:41:22.045Z,110
2018-02-24T08:41:47.502Z,115
2018-02-24T08:42:13.069Z,115
2018-02-24T08:42:38.546Z,115
2018-02-24T08:43:04.069Z,115
2018-02-24T08:43:29.537Z,115
2018-02-24T08:43:55.039Z,115
2018-02-24T08:44:20.498Z,115
2018-02-24T08:44:45.983Z,115
2018-02-24T08:45:11.478Z,115
2018-02-24T08:45:36.978Z,115
2018-02-24T08:46:02.445Z,115
2018-02-24T08:46:27.908Z,115
2018-02-24T08:46:53.433Z,115
2018-02-24T08:47:18.877Z,115
2018-02-24T08:47:44.385Z,115
2018-02-24T08:48:09.882Z,120
2018-02-24T08:48:35.322Z,120
2018-02-24T08:49:00.842Z,120
2018-02-24T08:49:26.320Z,120
2018-02-24T08:49:51.829Z,120
2018-02-24T08:50:17.357Z,120
2018-02-24T08:50:42.768Z,120
2018-02-24T08:51:08.218Z,120
2018-02-24T08:51:33.743Z,120
2018-02-24T08:51:59.215Z,120
2018-02-24T08:52:24.727Z,120
2018-02-24T08:52:50.228Z,120
2018-02-24T08:53:15.697Z,120
2018-02-24T08:53:41.143Z,120
2018-02-24T08:54:06.633Z,120
2018-02-24T08:54:32.192Z,120
2018-02-24T08:54:57.678Z,125
2018-02-24T08:55:23.323Z,120
2018-02-24T08:55:48.830Z,120
2018-02-24T08:56:14.300Z,120
2018-02-24T08:56:39.780Z,120
2018-02-24T08:57:05.260Z,120
2018-02-24T08:57:31.122Z,120
2018-02-24T08:57:56.594Z,120
2018-02-24T08:58:22.079Z,120
2018-02-24T08:58:47.549Z,120
2018-02-24T08:59:13.061Z,115
2018-02-24T08:59:38.582Z,115
2018-02-24T09:00:04.032Z,115
2018-02-24T09:00:29.511Z,115
2018-02-24T09:00:55.015Z,115
2018-02-24T09:01:20.532Z,120
2018-02-24T09:01:45.990Z,120
2018-02-24T09:02:11.441Z,120
2018-02-24T09:02:36.937Z,120
2018-02-24T09:03:02.403Z,120
2018-02-24T09:03:27.888Z,120
2018-02-24T09:03:53.400Z,120
2018-02-24T09:04:18.840Z,120
2018-02-24T09:04:44.327Z,120
2018-02-24T09:05:09.855Z,120
2018-02-24T09:05:35.397Z,120
2018-02-24T09:06:00.988Z,120
2018-02-24T09:06:26.479Z,120
2018-02-24T09:06:51.911Z,120
2018-02-24T09:07:17.378Z,120
2018-02-24T09:07:43.041Z,120
2018-02-24T09:08:08.821Z,120
2018-02-24T09:08:34.393Z,120
2018-02-24T09:09:00.146Z,120
2018-02-24T09:09:25.757Z,120
2018-02-24T09:09:51.309Z,120
2018-02-24T09:10:16.850Z,120
2018-02-24T09:10:42.356Z,120
2018-02-24T09:11:07.855Z,120
2018-02-24T09:11:33.328Z,120
2018-02-24T09:11:58.852Z,120
2018-02-24T09:12:24.374Z,120
2018-02-24T09:12:49.850Z,120
2018-02-24T09:13:15.425Z,120
2018-02-24T09:13:40.905Z,120
2018-02-24T09:14:06.372Z,120
2018-02-24T09:14:31.846Z,120
2018-02-24T09:14:57.328Z,120
2018-02-24T09:15:22.828Z,120
2018-02-24T09:15:48.311Z,120
2018-02-24T09:16:13.822Z,120
2018-02-24T09:16:39.505Z,120
2018-02-24T09:17:04.919Z,120
2018-02-24T09:17:30.424Z,120
2018-02-24T09:17:56.389Z,120
2018-02-24T09:18:22.264Z,120
2018-02-24T09:18:47.734Z,120
2018-02-24T09:19:13.211Z,120
2018-02-24T09:19:38.714Z,120
2018-02-24T09:20:04.153Z,120
2018-02-24T09:20:29.721Z,120
2018-02-24T09:20:55.221Z,120
2018-02-24T09:21:21.045Z,120
2018-02-24T09:21:46.570Z,120
2018-02-24T09:22:12.051Z,120
2018-02-24T09:22:37.573Z,120
2018-02-24T09:23:03.036Z,120
2018-02-24T09:23:28.534Z,120
2018-02-24T09:23:54.055Z,120
2018-02-24T09:24:19.521Z,120
2018-02-24T09:24:44.970Z,120
2018-02-24T09:25:10.438Z,120
2018-02-24T09:25:35.896Z,120
2018-02-24T09:26:01.420Z,120
2018-02-24T09:26:26.930Z,120
2018-02-24T09:26:52.397Z,120
2018-02-24T09:27:17.908Z,120
2018-02-24T09:27:43.396Z,120
2018-02-24T09:28:08.864Z,120
2018-02-24T09:28:34.322Z,120
2018-02-24T09:28:59.796Z,120
2018-02-24T09:29:25.294Z,120
2018-02-24T09:29:50.778Z,120
2018-02-24T09:30:16.383Z,120
2018-02-24T09:30:41.883Z,120
2018-02-24T09:31:07.397Z,120
2018-02-24T09:31:32.878Z,120
2018-02-24T09:31:58.350Z,120
2018-02-24T09:32:23.786Z,120
2018-02-24T09:32:49.348Z,120
2018-02-24T09:33:14.800Z,120
2018-02-24T09:33:40.291Z,120
2018-02-24T09:34:05.997Z,120
2018-02-24T09:34:31.498Z,120
2018-02-24T09:34:56.945Z,120
2018-02-24T09:35:22.451Z,120
2018-02-24T09:35:47.986Z,120
2018-02-24T09:36:13.433Z,120
2018-02-24T09:36:38.898Z,120
2018-02-24T09:37:04.389Z,120
2018-02-24T09:37:29.850Z,120
2018-02-24T09:37:55.345Z,120
2018-02-24T09:38:20.819Z,120
2018-02-24T09:38:46.272Z,120
2018-02-24T09:39:11.761Z,120
2018-02-24T09:39:37.246Z,120
2018-02-24T09:40:02.728Z,120
2018-02-24T09:40:28.230Z,120
2018-02-24T09:40:53.966Z,120
2018-02-24T09:41:19.471Z,120
2018-02-24T09:41:44.944Z,120
2018-02-24T09:42:10.420Z,120
2018-02-24T09:42:35.892Z,120
2018-02-24T09:43:01.331Z,120
2018-02-24T09:43:26.832Z,120
2018-02-24T09:43:52.302Z,120
2018-02-24T09:44:17.911Z,120
2018-02-24T09:44:43.413Z,120
2018-02-24T09:45:08.878Z,120
2018-02-24T09:45:34.337Z,120
2018-02-24T09:45:59.852Z,120
2018-02-24T09:46:25.391Z,120
2018-02-24T09:46:50.837Z,120
2018-02-24T09:47:16.364Z,120
2018-02-24T09:47:41.808Z,125
2018-02-24T09:48:07.265Z,120
2018-02-24T09:48:32.773Z,125
2018-02-24T09:48:58.159Z,125
2018-02-24T09:49:23.628Z,120
2018-02-24T09:49:49.165Z,120
2018-02-24T09:50:14.674Z,120
2018-02-24T09:50:40.094Z,120
2018-02-24T09:51:05.550Z,120
2018-02-24T09:51:30.974Z,120
2018-02-24T09:51:56.445Z,120
2018-02-24T09:52:21.963Z,120
2018-02-24T09:52:47.451Z,120
2018-02-24T09:53:12.947Z,120
2018-02-24T09:53:38.447Z,120
2018-02-24T09:54:03.978Z,120
2018-02-24T09:54:29.492Z,120
2018-02-24T09:55:53.486Z,120
2018-02-24T09:56:18.997Z,120
2018-02-24T09:56:44.510Z,120
2018-02-24T09:57:09.948Z,120
2018-02-24T09:57:35.475Z,125
2018-02-24T09:58:00.901Z,125
2018-02-24T09:59:09.590Z,125
2018-02-24T09:59:35.107Z,125
2018-02-24T10:00:00.581Z,125
2018-02-24T10:00:26.000Z,120
2018-02-24T10:00:51.442Z,120
2018-02-24T10:01:16.898Z,120
2018-02-24T10:01:42.380Z,125
2018-02-24T10:03:11.463Z,125
2018-02-24T10:03:36.950Z,120
2018-02-24T10:04:02.410Z,120
2018-02-24T10:04:27.915Z,120
2018-02-24T10:04:53.398Z,115
2018-02-24T10:05:18.893Z,120
2018-02-24T10:05:44.313Z,120
2018-02-24T10:06:09.857Z,115
2018-02-24T10:06:35.377Z,115
2018-02-24T10:07:00.842Z,120
2018-02-24T10:07:26.306Z,120
2018-02-24T10:07:51.832Z,120
2018-02-24T10:08:17.323Z,115
2018-02-24T10:08:42.811Z,120
2018-02-24T10:09:08.306Z,120
2018-02-24T10:09:33.769Z,115
2018-02-24T10:09:59.266Z,120
2018-02-24T10:10:24.722Z,115
2018-02-24T10:10:50.229Z,115
2018-02-24T10:11:15.748Z,115
2018-02-24T10:11:41.125Z,115
2018-02-24T10:12:06.614Z,115
2018-02-24T10:13:15.331Z,115
2018-02-24T10:13:40.817Z,115
2018-02-24T10:14:06.295Z,115
2018-02-24T10:14:31.749Z,115
2018-02-24T10:14:57.229Z,115
2018-02-24T10:15:22.746Z,115
2018-02-24T10:15:48.278Z,115
2018-02-24T10:16:13.730Z,110
2018-02-24T10:16:39.258Z,110
2018-02-24T10:17:04.702Z,110
2018-02-24T10:17:30.157Z,110
2018-02-24T10:17:55.620Z,110
2018-02-24T10:18:21.079Z,110
2018-02-24T10:18:46.547Z,110
2018-02-24T10:19:12.015Z,110
2018-02-24T10:19:37.539Z,110
2018-02-24T10:20:03.021Z,110
2018-02-24T10:20:28.488Z,110
2018-02-24T10:20:53.990Z,110
2018-02-24T10:21:19.434Z,110
2018-02-24T10:21:44.887Z,110
2018-02-24T10:22:10.378Z,110
2018-02-24T10:22:35.828Z,110
2018-02-24T10:23:01.301Z,110
2018-02-24T10:23:26.758Z,110
2018-02-24T10:23:52.253Z,110
2018-02-24T10:24:17.700Z,110
2018-02-24T10:24:43.148Z,110
2018-02-24T10:25:08.639Z,110
2018-02-24T10:25:34.113Z,110
2018-02-24T10:25:59.568Z,110
2018-02-24T10:26:25.032Z,110
2018-02-24T10:26:50.495Z,110
2018-02-24T10:27:15.961Z,110
2018-02-24T10:27:41.492Z,110
2018-02-24T10:28:06.911Z,110
2018-02-24T10:28:32.425Z,110
2018-02-24T10:28:57.914Z,110
2018-02-24T10:29:23.372Z,115
2018-02-24T10:29:48.842Z,110
2018-02-24T10:30:14.331Z,110
2018-02-24T10:30:39.847Z,110
2018-02-24T10:31:05.339Z,110
2018-02-24T10:31:30.773Z,110
2018-02-24T10:31:56.256Z,110
2018-02-24T10:32:21.713Z,110
2018-02-24T10:32:47.165Z,110
2018-02-24T10:33:12.657Z,110
2018-02-24T10:33:38.119Z,110
2018-02-24T10:34:03.608Z,110
2018-02-24T10:34:29.082Z,110
2018-02-24T10:34:54.539Z,110
2018-02-24T10:35:20.029Z,110
2018-02-24T10:35:45.591Z,110
2018-02-24T10:36:11.030Z,110
2018-02-24T10:36:36.591Z,110
2018-02-24T10:37:02.094Z,110
2018-02-24T10:37:27.506Z,110
2018-02-24T10:37:53.035Z,110
2018-02-24T10:38:18.658Z,110
2018-02-24T10:38:44.153Z,110
2018-02-24T10:39:09.677Z,110
2018-02-24T10:39:35.183Z,110
2018-02-24T10:40:00.857Z,110
2018-02-24T10:40:26.629Z,110
2018-02-24T10:40:52.010Z,115
2018-02-24T10:42:21.318Z,115
2018-02-24T10:42:46.700Z,110
2018-02-24T10:43:12.214Z,110
2018-02-24T10:43:37.675Z,110
2018-02-24T10:44:03.168Z,110
2018-02-24T10:44:28.681Z,110
2018-02-24T10:44:54.305Z,115
2018-02-24T10:45:19.755Z,110
2018-02-24T10:45:45.220Z,115
2018-02-24T10:46:10.748Z,115
2018-02-24T10:46:36.248Z,115
2018-02-24T10:47:01.678Z,115
2018-02-24T10:47:27.189Z,115
2018-02-24T10:47:52.644Z,115
2018-02-24T10:48:18.107Z,120
2018-02-24T10:48:43.538Z,125
2018-02-24T10:49:08.992Z,130
2018-02-24T10:49:34.506Z,130
2018-02-24T10:49:59.993Z,130
2018-02-24T10:50:25.451Z,135
2018-02-24T10:50:50.953Z,130
2018-02-24T10:51:16.440Z,120
2018-02-24T10:51:41.919Z,125
2018-02-24T10:52:07.385Z,120
2018-02-24T10:52:32.858Z,115
2018-02-24T10:52:58.331Z,115
2018-02-24T10:53:23.800Z,125
2018-02-24T10:53:49.342Z,125
2018-02-24T10:54:14.786Z,135
2018-02-24T10:54:40.299Z,140
2018-02-24T10:55:05.748Z,140
2018-02-24T10:55:31.258Z,140
2018-02-24T10:55:56.751Z,145
2018-02-24T10:56:22.246Z,150
2018-02-24T10:56:47.737Z,145
2018-02-24T10:57:13.186Z,150
2018-02-24T10:57:38.701Z,150
2018-02-24T10:58:04.180Z,150
2018-02-24T10:58:29.658Z,165
2018-02-24T10:58:55.183Z,175
2018-02-24T10:59:20.658Z,185
2018-02-24T10:59:46.131Z,190
2018-02-24T11:00:11.584Z,195
2018-02-24T11:00:37.053Z,190
2018-02-24T11:01:02.597Z,190
2018-02-24T11:01:28.068Z,185
2018-02-24T11:02:52.063Z,170
2018-02-24T11:03:17.557Z,165
2018-02-24T11:03:43.036Z,160
2018-02-24T11:04:08.553Z,175
2018-02-24T11:04:34.043Z,190
2018-02-24T11:04:59.602Z,200
2018-02-24T11:05:25.061Z,200
2018-02-24T11:05:50.620Z,210
2018-02-24T11:06:16.061Z,205
2018-02-24T11:06:41.509Z,195
2018-02-24T11:07:07.013Z,200
2018-02-24T11:07:32.485Z,200
2018-02-24T11:07:57.985Z,200
2018-02-24T11:08:23.475Z,210
2018-02-24T11:08:48.961Z,210
2018-02-24T11:09:14.437Z,210
2018-02-24T11:09:39.889Z,220
2018-02-24T11:10:05.388Z,225
2018-02-24T11:10:30.900Z,225
2018-02-24T11:10:56.477Z,210
2018-02-24T11:11:22.031Z,215
2018-02-24T11:11:47.511Z,215
2018-02-24T11:12:13.067Z,220
2018-02-24T11:12:38.490Z,230